sensor_id;sensor_type;location;lat;lon;timestamp;P1;durP1;ratioP1;P2;durP2;ratioP2
2480;SDS011;57396;48.742;9.128;2023-02-01T00:02:00;7.70;;;5.00;;
2480;SDS011;57396;48.742;9.128;2023-02-01T00:04:26;6.13;;;4.40;;
2480;SDS011;57396;48.742;9.128;2023-02-01T00:06:51;7.30;;;5.20;;
2480;SDS011;57396;48.742;9.128;2023-02-01T00:09:17;5.57;;;4.40;;
2480;SDS011;57396;48.742;9.128;2023-02-01T00:11:42;7.27;;;5.07;;
2480;SDS011;57396;48.742;9.128;2023-02-01T00:14:08;5.40;;;4.37;;
2480;SDS011;57396;48.742;9.128;2023-02-01T00:16:33;5.13;;;3.83;;
2480;SDS011;57396;48.742;9.128;2023-02-01T00:19:00;7.33;;;4.70;;
2480;SDS011;57396;48.742;9.128;2023-02-01T00:21:30;5.23;;;4.57;;
2480;SDS011;57396;48.742;9.128;2023-02-01T00:23:56;6.77;;;4.70;;
2480;SDS011;57396;48.742;9.128;2023-02-01T00:26:24;6.03;;;4.20;;
2480;SDS011;57396;48.742;9.128;2023-02-01T00:28:52;5.20;;;4.50;;
2480;SDS011;57396;48.742;9.128;2023-02-01T00:31:18;5.30;;;4.07;;
2480;SDS011;57396;48.742;9.128;2023-02-01T00:33:46;5.03;;;4.53;;
2480;SDS011;57396;48.742;9.128;2023-02-01T00:36:12;5.40;;;4.20;;
2480;SDS011;57396;48.742;9.128;2023-02-01T00:38:38;5.10;;;3.90;;
2480;SDS011;57396;48.742;9.128;2023-02-01T00:43:33;4.53;;;3.73;;
2480;SDS011;57396;48.742;9.128;2023-02-01T00:45:58;5.97;;;4.30;;
2480;SDS011;57396;48.742;9.128;2023-02-01T00:48:24;5.30;;;4.10;;
2480;SDS011;57396;48.742;9.128;2023-02-01T00:50:50;4.77;;;3.43;;
2480;SDS011;57396;48.742;9.128;2023-02-01T00:53:16;5.23;;;3.70;;
2480;SDS011;57396;48.742;9.128;2023-02-01T00:55:44;5.20;;;4.00;;
2480;SDS011;57396;48.742;9.128;2023-02-01T00:58:13;4.70;;;3.70;;
2480;SDS011;57396;48.742;9.128;2023-02-01T01:00:39;4.47;;;3.53;;
2480;SDS011;57396;48.742;9.128;2023-02-01T01:03:04;4.33;;;3.90;;
2480;SDS011;57396;48.742;9.128;2023-02-01T01:05:48;3.87;;;3.20;;
2480;SDS011;57396;48.742;9.128;2023-02-01T01:08:14;3.70;;;3.23;;
2480;SDS011;57396;48.742;9.128;2023-02-01T01:10:40;4.17;;;3.10;;
2480;SDS011;57396;48.742;9.128;2023-02-01T01:13:07;4.23;;;3.53;;
2480;SDS011;57396;48.742;9.128;2023-02-01T01:15:39;4.50;;;2.87;;
2480;SDS011;57396;48.742;9.128;2023-02-01T01:18:04;3.30;;;3.00;;
2480;SDS011;57396;48.742;9.128;2023-02-01T01:20:30;4.30;;;3.10;;
2480;SDS011;57396;48.742;9.128;2023-02-01T01:22:55;3.03;;;2.73;;
2480;SDS011;57396;48.742;9.128;2023-02-01T01:25:21;2.97;;;2.60;;
2480;SDS011;57396;48.742;9.128;2023-02-01T01:27:47;3.13;;;2.70;;
2480;SDS011;57396;48.742;9.128;2023-02-01T01:30:12;3.40;;;2.80;;
2480;SDS011;57396;48.742;9.128;2023-02-01T01:32:38;3.43;;;2.50;;
2480;SDS011;57396;48.742;9.128;2023-02-01T01:35:03;3.43;;;2.67;;
2480;SDS011;57396;48.742;9.128;2023-02-01T01:37:29;2.80;;;2.60;;
2480;SDS011;57396;48.742;9.128;2023-02-01T01:39:54;3.30;;;3.00;;
2480;SDS011;57396;48.742;9.128;2023-02-01T01:42:21;3.70;;;2.80;;
2480;SDS011;57396;48.742;9.128;2023-02-01T01:45:06;3.60;;;2.40;;
2480;SDS011;57396;48.742;9.128;2023-02-01T01:47:41;2.83;;;2.63;;
2480;SDS011;57396;48.742;9.128;2023-02-01T01:50:09;3.00;;;2.60;;
2480;SDS011;57396;48.742;9.128;2023-02-01T01:52:37;2.50;;;2.30;;
2480;SDS011;57396;48.742;9.128;2023-02-01T01:55:03;2.60;;;2.40;;
2480;SDS011;57396;48.742;9.128;2023-02-01T01:57:33;3.40;;;2.83;;
2480;SDS011;57396;48.742;9.128;2023-02-01T02:00:05;3.00;;;2.70;;
2480;SDS011;57396;48.742;9.128;2023-02-01T02:02:48;3.20;;;2.90;;
2480;SDS011;57396;48.742;9.128;2023-02-01T02:05:20;2.50;;;2.30;;
2480;SDS011;57396;48.742;9.128;2023-02-01T02:07:46;3.77;;;2.80;;
2480;SDS011;57396;48.742;9.128;2023-02-01T02:10:14;3.67;;;3.10;;
2480;SDS011;57396;48.742;9.128;2023-02-01T02:12:41;3.23;;;2.73;;
2480;SDS011;57396;48.742;9.128;2023-02-01T02:15:08;3.50;;;3.17;;
2480;SDS011;57396;48.742;9.128;2023-02-01T02:37:00;3.40;;;3.10;;
2480;SDS011;57396;48.742;9.128;2023-02-01T02:42:08;5.10;;;3.20;;
2480;SDS011;57396;48.742;9.128;2023-02-01T02:53:25;3.77;;;3.00;;
2480;SDS011;57396;48.742;9.128;2023-02-01T02:56:12;3.80;;;3.07;;
2480;SDS011;57396;48.742;9.128;2023-02-01T02:58:56;3.83;;;3.03;;
2480;SDS011;57396;48.742;9.128;2023-02-01T03:01:42;2.90;;;2.70;;
2480;SDS011;57396;48.742;9.128;2023-02-01T03:04:26;3.47;;;3.17;;
2480;SDS011;57396;48.742;9.128;2023-02-01T03:06:52;3.20;;;2.90;;
2480;SDS011;57396;48.742;9.128;2023-02-01T03:09:21;3.50;;;3.20;;
2480;SDS011;57396;48.742;9.128;2023-02-01T03:11:50;4.40;;;3.30;;
2480;SDS011;57396;48.742;9.128;2023-02-01T03:14:38;3.20;;;2.90;;
2480;SDS011;57396;48.742;9.128;2023-02-01T03:17:17;3.77;;;3.37;;
2480;SDS011;57396;48.742;9.128;2023-02-01T03:19:46;5.40;;;3.60;;
2480;SDS011;57396;48.742;9.128;2023-02-01T03:22:20;3.27;;;2.97;;
2480;SDS011;57396;48.742;9.128;2023-02-01T03:24:49;3.77;;;3.47;;
2480;SDS011;57396;48.742;9.128;2023-02-01T03:27:18;4.73;;;3.33;;
2480;SDS011;57396;48.742;9.128;2023-02-01T03:32:14;4.03;;;3.63;;
2480;SDS011;57396;48.742;9.128;2023-02-01T03:34:40;3.17;;;2.97;;
2480;SDS011;57396;48.742;9.128;2023-02-01T03:37:06;3.80;;;3.40;;
2480;SDS011;57396;48.742;9.128;2023-02-01T03:39:36;5.33;;;4.13;;
2480;SDS011;57396;48.742;9.128;2023-02-01T03:42:19;4.53;;;3.83;;
2480;SDS011;57396;48.742;9.128;2023-02-01T03:45:01;3.13;;;2.83;;
2480;SDS011;57396;48.742;9.128;2023-02-01T03:47:49;3.50;;;3.20;;
2480;SDS011;57396;48.742;9.128;2023-02-01T03:50:17;3.77;;;3.20;;
2480;SDS011;57396;48.742;9.128;2023-02-01T03:52:58;3.70;;;3.30;;
2480;SDS011;57396;48.742;9.128;2023-02-01T03:55:25;4.67;;;3.87;;
2480;SDS011;57396;48.742;9.128;2023-02-01T04:00:29;4.00;;;3.60;;
2480;SDS011;57396;48.742;9.128;2023-02-01T04:02:55;4.73;;;3.70;;
2480;SDS011;57396;48.742;9.128;2023-02-01T04:05:21;4.57;;;3.47;;
2480;SDS011;57396;48.742;9.128;2023-02-01T04:07:46;3.50;;;3.20;;
2480;SDS011;57396;48.742;9.128;2023-02-01T04:10:12;3.93;;;3.40;;
2480;SDS011;57396;48.742;9.128;2023-02-01T04:12:38;4.30;;;3.50;;
2480;SDS011;57396;48.742;9.128;2023-02-01T04:15:04;6.60;;;3.30;;
2480;SDS011;57396;48.742;9.128;2023-02-01T04:17:30;3.97;;;3.47;;
2480;SDS011;57396;48.742;9.128;2023-02-01T04:19:56;3.60;;;3.30;;
2480;SDS011;57396;48.742;9.128;2023-02-01T04:22:21;3.60;;;3.30;;
2480;SDS011;57396;48.742;9.128;2023-02-01T04:24:47;4.63;;;3.20;;
2480;SDS011;57396;48.742;9.128;2023-02-01T04:27:12;3.50;;;3.20;;
2480;SDS011;57396;48.742;9.128;2023-02-01T04:29:38;4.93;;;3.03;;
2480;SDS011;57396;48.742;9.128;2023-02-01T04:32:03;4.17;;;3.33;;
2480;SDS011;57396;48.742;9.128;2023-02-01T04:34:29;3.00;;;2.70;;
2480;SDS011;57396;48.742;9.128;2023-02-01T04:36:55;3.77;;;2.77;;
2480;SDS011;57396;48.742;9.128;2023-02-01T04:39:20;3.40;;;3.10;;
2480;SDS011;57396;48.742;9.128;2023-02-01T04:41:45;3.80;;;3.23;;
2480;SDS011;57396;48.742;9.128;2023-02-01T04:44:17;3.20;;;2.90;;
2480;SDS011;57396;48.742;9.128;2023-02-01T04:46:44;4.00;;;2.87;;
2480;SDS011;57396;48.742;9.128;2023-02-01T04:49:10;4.17;;;3.00;;
2480;SDS011;57396;48.742;9.128;2023-02-01T04:51:36;3.30;;;3.10;;
2480;SDS011;57396;48.742;9.128;2023-02-01T04:54:02;2.70;;;2.50;;
2480;SDS011;57396;48.742;9.128;2023-02-01T04:56:27;3.07;;;2.70;;
2480;SDS011;57396;48.742;9.128;2023-02-01T04:58:53;3.90;;;2.80;;
2480;SDS011;57396;48.742;9.128;2023-02-01T05:01:18;3.30;;;2.90;;
2480;SDS011;57396;48.742;9.128;2023-02-01T05:03:44;4.17;;;2.73;;
2480;SDS011;57396;48.742;9.128;2023-02-01T05:06:09;3.30;;;3.00;;
2480;SDS011;57396;48.742;9.128;2023-02-01T05:08:35;3.40;;;2.53;;
2480;SDS011;57396;48.742;9.128;2023-02-01T05:11:00;2.83;;;2.63;;
2480;SDS011;57396;48.742;9.128;2023-02-01T05:13:28;2.63;;;2.43;;
2480;SDS011;57396;48.742;9.128;2023-02-01T05:16:29;4.13;;;2.80;;
2480;SDS011;57396;48.742;9.128;2023-02-01T05:18:54;3.30;;;2.57;;
2480;SDS011;57396;48.742;9.128;2023-02-01T05:21:20;3.47;;;2.67;;
2480;SDS011;57396;48.742;9.128;2023-02-01T05:23:45;7.10;;;3.00;;
2480;SDS011;57396;48.742;9.128;2023-02-01T05:26:29;2.90;;;2.57;;
2480;SDS011;57396;48.742;9.128;2023-02-01T05:28:55;3.30;;;3.00;;
2480;SDS011;57396;48.742;9.128;2023-02-01T05:31:21;3.60;;;2.50;;
2480;SDS011;57396;48.742;9.128;2023-02-01T05:33:47;3.13;;;2.80;;
2480;SDS011;57396;48.742;9.128;2023-02-01T05:36:12;2.80;;;2.60;;
2480;SDS011;57396;48.742;9.128;2023-02-01T05:38:38;3.03;;;2.73;;
2480;SDS011;57396;48.742;9.128;2023-02-01T05:41:04;3.00;;;2.70;;
2480;SDS011;57396;48.742;9.128;2023-02-01T05:43:29;3.47;;;2.43;;
2480;SDS011;57396;48.742;9.128;2023-02-01T05:45:55;5.93;;;2.30;;
2480;SDS011;57396;48.742;9.128;2023-02-01T05:48:20;3.33;;;2.67;;
2480;SDS011;57396;48.742;9.128;2023-02-01T05:50:45;3.13;;;2.30;;
2480;SDS011;57396;48.742;9.128;2023-02-01T05:53:11;3.50;;;2.67;;
2480;SDS011;57396;48.742;9.128;2023-02-01T05:55:37;2.87;;;2.37;;
2480;SDS011;57396;48.742;9.128;2023-02-01T05:58:03;5.17;;;3.10;;
2480;SDS011;57396;48.742;9.128;2023-02-01T06:00:29;4.17;;;2.80;;
2480;SDS011;57396;48.742;9.128;2023-02-01T06:02:54;4.20;;;2.60;;
2480;SDS011;57396;48.742;9.128;2023-02-01T06:05:20;3.10;;;2.73;;
2480;SDS011;57396;48.742;9.128;2023-02-01T06:07:45;2.93;;;2.70;;
2480;SDS011;57396;48.742;9.128;2023-02-01T06:10:12;4.13;;;2.87;;
2480;SDS011;57396;48.742;9.128;2023-02-01T06:12:37;6.50;;;2.50;;
2480;SDS011;57396;48.742;9.128;2023-02-01T06:15:03;5.20;;;2.90;;
2480;SDS011;57396;48.742;9.128;2023-02-01T06:17:29;3.20;;;2.50;;
2480;SDS011;57396;48.742;9.128;2023-02-01T06:19:54;3.60;;;3.00;;
2480;SDS011;57396;48.742;9.128;2023-02-01T06:22:19;3.53;;;2.87;;
2480;SDS011;57396;48.742;9.128;2023-02-01T06:24:46;6.17;;;2.77;;
2480;SDS011;57396;48.742;9.128;2023-02-01T06:27:12;3.43;;;2.90;;
2480;SDS011;57396;48.742;9.128;2023-02-01T06:29:38;9.03;;;2.80;;
2480;SDS011;57396;48.742;9.128;2023-02-01T06:32:03;2.53;;;2.30;;
2480;SDS011;57396;48.742;9.128;2023-02-01T06:34:29;4.70;;;2.97;;
2480;SDS011;57396;48.742;9.128;2023-02-01T06:36:54;3.33;;;2.70;;
2480;SDS011;57396;48.742;9.128;2023-02-01T06:39:20;3.67;;;3.00;;
2480;SDS011;57396;48.742;9.128;2023-02-01T06:41:46;3.13;;;2.40;;
2480;SDS011;57396;48.742;9.128;2023-02-01T06:44:12;4.43;;;2.80;;
2480;SDS011;57396;48.742;9.128;2023-02-01T06:46:38;2.77;;;2.57;;
2480;SDS011;57396;48.742;9.128;2023-02-01T06:49:03;3.47;;;2.90;;
2480;SDS011;57396;48.742;9.128;2023-02-01T06:51:29;4.03;;;2.90;;
2480;SDS011;57396;48.742;9.128;2023-02-01T06:53:54;5.00;;;3.07;;
2480;SDS011;57396;48.742;9.128;2023-02-01T06:56:20;6.40;;;3.17;;
2480;SDS011;57396;48.742;9.128;2023-02-01T06:58:46;3.13;;;2.73;;
2480;SDS011;57396;48.742;9.128;2023-02-01T07:01:12;8.83;;;4.20;;
2480;SDS011;57396;48.742;9.128;2023-02-01T07:03:38;4.00;;;2.90;;
2480;SDS011;57396;48.742;9.128;2023-02-01T07:06:03;7.67;;;2.60;;
2480;SDS011;57396;48.742;9.128;2023-02-01T07:08:32;3.53;;;2.67;;
2480;SDS011;57396;48.742;9.128;2023-02-01T07:11:06;7.20;;;2.90;;
2480;SDS011;57396;48.742;9.128;2023-02-01T07:13:33;4.10;;;2.70;;
2480;SDS011;57396;48.742;9.128;2023-02-01T07:16:02;6.70;;;2.87;;
2480;SDS011;57396;48.742;9.128;2023-02-01T07:18:29;3.60;;;3.27;;
2480;SDS011;57396;48.742;9.128;2023-02-01T07:20:55;6.93;;;3.00;;
2480;SDS011;57396;48.742;9.128;2023-02-01T07:23:21;3.50;;;2.97;;
2480;SDS011;57396;48.742;9.128;2023-02-01T07:25:47;3.23;;;2.57;;
2480;SDS011;57396;48.742;9.128;2023-02-01T07:28:12;6.03;;;3.13;;
2480;SDS011;57396;48.742;9.128;2023-02-01T07:30:38;9.03;;;3.20;;
2480;SDS011;57396;48.742;9.128;2023-02-01T07:33:03;3.83;;;3.00;;
2480;SDS011;57396;48.742;9.128;2023-02-01T07:35:29;4.07;;;2.90;;
2480;SDS011;57396;48.742;9.128;2023-02-01T07:37:56;2.57;;;2.37;;
2480;SDS011;57396;48.742;9.128;2023-02-01T07:40:22;5.50;;;2.77;;
2480;SDS011;57396;48.742;9.128;2023-02-01T07:42:53;3.67;;;2.73;;
2480;SDS011;57396;48.742;9.128;2023-02-01T07:45:20;3.90;;;3.20;;
2480;SDS011;57396;48.742;9.128;2023-02-01T07:47:45;6.70;;;3.37;;
2480;SDS011;57396;48.742;9.128;2023-02-01T07:50:10;7.67;;;3.27;;
2480;SDS011;57396;48.742;9.128;2023-02-01T07:52:36;4.60;;;3.37;;
2480;SDS011;57396;48.742;9.128;2023-02-01T07:55:01;6.80;;;3.27;;
2480;SDS011;57396;48.742;9.128;2023-02-01T07:57:27;4.43;;;3.00;;
2480;SDS011;57396;48.742;9.128;2023-02-01T07:59:52;4.67;;;2.70;;
2480;SDS011;57396;48.742;9.128;2023-02-01T08:02:36;7.70;;;3.50;;
2480;SDS011;57396;48.742;9.128;2023-02-01T08:05:02;4.13;;;2.80;;
2480;SDS011;57396;48.742;9.128;2023-02-01T08:07:29;6.40;;;3.70;;
2480;SDS011;57396;48.742;9.128;2023-02-01T08:09:55;6.20;;;4.17;;
2480;SDS011;57396;48.742;9.128;2023-02-01T08:12:20;10.20;;;3.90;;
2480;SDS011;57396;48.742;9.128;2023-02-01T08:14:46;3.37;;;3.07;;
2480;SDS011;57396;48.742;9.128;2023-02-01T08:17:11;5.20;;;3.00;;
2480;SDS011;57396;48.742;9.128;2023-02-01T08:19:37;7.70;;;3.50;;
2480;SDS011;57396;48.742;9.128;2023-02-01T08:22:02;6.50;;;3.30;;
2480;SDS011;57396;48.742;9.128;2023-02-01T08:24:32;3.40;;;3.00;;
2480;SDS011;57396;48.742;9.128;2023-02-01T08:26:58;4.60;;;3.40;;
2480;SDS011;57396;48.742;9.128;2023-02-01T08:29:23;3.90;;;2.70;;
2480;SDS011;57396;48.742;9.128;2023-02-01T08:31:49;4.50;;;3.60;;
2480;SDS011;57396;48.742;9.128;2023-02-01T08:34:15;4.80;;;3.40;;
2480;SDS011;57396;48.742;9.128;2023-02-01T08:36:41;6.53;;;3.03;;
2480;SDS011;57396;48.742;9.128;2023-02-01T08:39:06;7.60;;;3.60;;
2480;SDS011;57396;48.742;9.128;2023-02-01T08:41:34;9.33;;;4.00;;
2480;SDS011;57396;48.742;9.128;2023-02-01T08:43:59;4.77;;;3.20;;
2480;SDS011;57396;48.742;9.128;2023-02-01T08:46:25;10.73;;;3.47;;
2480;SDS011;57396;48.742;9.128;2023-02-01T08:48:51;7.77;;;3.50;;
2480;SDS011;57396;48.742;9.128;2023-02-01T08:51:18;5.83;;;3.70;;
2480;SDS011;57396;48.742;9.128;2023-02-01T08:53:44;11.33;;;3.97;;
2480;SDS011;57396;48.742;9.128;2023-02-01T08:56:10;9.37;;;3.30;;
2480;SDS011;57396;48.742;9.128;2023-02-01T08:58:37;8.03;;;3.47;;
2480;SDS011;57396;48.742;9.128;2023-02-01T09:01:04;7.63;;;3.00;;
2480;SDS011;57396;48.742;9.128;2023-02-01T09:03:30;7.23;;;3.83;;
2480;SDS011;57396;48.742;9.128;2023-02-01T09:06:02;8.13;;;3.93;;
2480;SDS011;57396;48.742;9.128;2023-02-01T09:08:28;10.13;;;3.20;;
2480;SDS011;57396;48.742;9.128;2023-02-01T09:10:58;5.83;;;3.43;;
2480;SDS011;57396;48.742;9.128;2023-02-01T09:13:27;8.90;;;3.70;;
2480;SDS011;57396;48.742;9.128;2023-02-01T09:15:52;5.43;;;3.00;;
2480;SDS011;57396;48.742;9.128;2023-02-01T09:18:18;5.70;;;3.60;;
2480;SDS011;57396;48.742;9.128;2023-02-01T09:20:43;7.20;;;2.50;;
2480;SDS011;57396;48.742;9.128;2023-02-01T09:23:09;10.80;;;3.53;;
2480;SDS011;57396;48.742;9.128;2023-02-01T09:25:36;9.03;;;2.80;;
2480;SDS011;57396;48.742;9.128;2023-02-01T09:28:02;10.47;;;2.73;;
2480;SDS011;57396;48.742;9.128;2023-02-01T09:30:29;16.50;;;3.77;;
2480;SDS011;57396;48.742;9.128;2023-02-01T09:32:54;9.70;;;3.00;;
2480;SDS011;57396;48.742;9.128;2023-02-01T09:35:20;7.63;;;2.80;;
2480;SDS011;57396;48.742;9.128;2023-02-01T09:37:46;10.13;;;3.23;;
2480;SDS011;57396;48.742;9.128;2023-02-01T09:40:13;4.17;;;2.73;;
2480;SDS011;57396;48.742;9.128;2023-02-01T09:42:46;6.73;;;3.27;;
2480;SDS011;57396;48.742;9.128;2023-02-01T09:45:29;9.33;;;3.30;;
2480;SDS011;57396;48.742;9.128;2023-02-01T09:48:02;13.73;;;2.83;;
2480;SDS011;57396;48.742;9.128;2023-02-01T09:50:34;10.13;;;3.13;;
2480;SDS011;57396;48.742;9.128;2023-02-01T09:53:20;11.03;;;2.80;;
2480;SDS011;57396;48.742;9.128;2023-02-01T09:55:48;16.87;;;3.80;;
2480;SDS011;57396;48.742;9.128;2023-02-01T09:58:20;9.10;;;2.73;;
2480;SDS011;57396;48.742;9.128;2023-02-01T10:00:55;9.13;;;2.60;;
2480;SDS011;57396;48.742;9.128;2023-02-01T10:03:23;11.40;;;3.30;;
2480;SDS011;57396;48.742;9.128;2023-02-01T10:08:37;11.93;;;3.37;;
2480;SDS011;57396;48.742;9.128;2023-02-01T10:11:32;12.93;;;3.80;;
2480;SDS011;57396;48.742;9.128;2023-02-01T10:20:02;14.17;;;3.40;;
2480;SDS011;57396;48.742;9.128;2023-02-01T10:22:46;10.97;;;2.97;;
2480;SDS011;57396;48.742;9.128;2023-02-01T10:25:22;7.63;;;2.60;;
2480;SDS011;57396;48.742;9.128;2023-02-01T10:27:53;8.30;;;3.10;;
2480;SDS011;57396;48.742;9.128;2023-02-01T10:30:23;12.40;;;3.23;;
2480;SDS011;57396;48.742;9.128;2023-02-01T10:33:38;10.03;;;3.10;;
2480;SDS011;57396;48.742;9.128;2023-02-01T10:35:44;8.40;;;3.00;;
2480;SDS011;57396;48.742;9.128;2023-02-01T10:38:18;11.97;;;2.77;;
2480;SDS011;57396;48.742;9.128;2023-02-01T10:40:49;12.03;;;3.47;;
2480;SDS011;57396;48.742;9.128;2023-02-01T10:43:17;9.50;;;2.63;;
2480;SDS011;57396;48.742;9.128;2023-02-01T10:45:42;11.97;;;2.77;;
2480;SDS011;57396;48.742;9.128;2023-02-01T10:48:08;9.73;;;2.73;;
2480;SDS011;57396;48.742;9.128;2023-02-01T10:51:19;11.43;;;3.20;;
2480;SDS011;57396;48.742;9.128;2023-02-01T10:53:31;9.90;;;2.47;;
2480;SDS011;57396;48.742;9.128;2023-02-01T10:56:08;15.03;;;3.43;;
2480;SDS011;57396;48.742;9.128;2023-02-01T10:58:35;12.03;;;2.53;;
2480;SDS011;57396;48.742;9.128;2023-02-01T11:01:06;10.10;;;2.33;;
2480;SDS011;57396;48.742;9.128;2023-02-01T11:03:37;10.27;;;2.83;;
2480;SDS011;57396;48.742;9.128;2023-02-01T11:06:26;13.83;;;3.40;;
2480;SDS011;57396;48.742;9.128;2023-02-01T11:08:59;13.70;;;3.03;;
2480;SDS011;57396;48.742;9.128;2023-02-01T11:11:26;7.70;;;2.50;;
2480;SDS011;57396;48.742;9.128;2023-02-01T11:13:53;8.53;;;2.57;;
2480;SDS011;57396;48.742;9.128;2023-02-01T11:16:21;14.77;;;2.90;;
2480;SDS011;57396;48.742;9.128;2023-02-01T11:18:46;7.73;;;2.87;;
2480;SDS011;57396;48.742;9.128;2023-02-01T11:21:18;8.37;;;2.53;;
2480;SDS011;57396;48.742;9.128;2023-02-01T11:23:44;13.47;;;3.10;;
2480;SDS011;57396;48.742;9.128;2023-02-01T11:26:14;8.13;;;3.13;;
2480;SDS011;57396;48.742;9.128;2023-02-01T11:28:49;9.50;;;3.00;;
2480;SDS011;57396;48.742;9.128;2023-02-01T11:31:17;9.53;;;2.77;;
2480;SDS011;57396;48.742;9.128;2023-02-01T11:33:46;10.10;;;2.63;;
2480;SDS011;57396;48.742;9.128;2023-02-01T11:36:24;8.77;;;2.40;;
2480;SDS011;57396;48.742;9.128;2023-02-01T11:38:53;8.77;;;2.67;;
2480;SDS011;57396;48.742;9.128;2023-02-01T11:41:32;15.67;;;2.90;;
2480;SDS011;57396;48.742;9.128;2023-02-01T11:43:59;8.67;;;2.40;;
2480;SDS011;57396;48.742;9.128;2023-02-01T11:46:30;14.43;;;2.80;;
2480;SDS011;57396;48.742;9.128;2023-02-01T11:48:57;16.43;;;3.40;;
2480;SDS011;57396;48.742;9.128;2023-02-01T11:54:18;6.17;;;2.33;;
2480;SDS011;57396;48.742;9.128;2023-02-01T11:56:56;18.80;;;2.90;;
2480;SDS011;57396;48.742;9.128;2023-02-01T12:02:45;9.20;;;2.63;;
2480;SDS011;57396;48.742;9.128;2023-02-01T12:05:29;15.30;;;3.03;;
2480;SDS011;57396;48.742;9.128;2023-02-01T12:08:01;8.43;;;2.63;;
2480;SDS011;57396;48.742;9.128;2023-02-01T12:13:47;14.93;;;3.80;;
2480;SDS011;57396;48.742;9.128;2023-02-01T12:16:19;8.73;;;2.40;;
2480;SDS011;57396;48.742;9.128;2023-02-01T12:21:43;14.50;;;4.83;;
2480;SDS011;57396;48.742;9.128;2023-02-01T12:24:39;9.75;;;2.90;;
2480;SDS011;57396;48.742;9.128;2023-02-01T12:27:30;13.13;;;2.60;;
2480;SDS011;57396;48.742;9.128;2023-02-01T12:43:59;6.53;;;2.40;;
2480;SDS011;57396;48.742;9.128;2023-02-01T12:46:40;12.70;;;3.83;;
2480;SDS011;57396;48.742;9.128;2023-02-01T12:49:19;8.37;;;2.60;;
2480;SDS011;57396;48.742;9.128;2023-02-01T12:51:51;12.60;;;2.90;;
2480;SDS011;57396;48.742;9.128;2023-02-01T12:57:01;10.90;;;3.30;;
2480;SDS011;57396;48.742;9.128;2023-02-01T13:02:18;5.63;;;2.13;;
2480;SDS011;57396;48.742;9.128;2023-02-01T13:04:58;6.50;;;2.63;;
2480;SDS011;57396;48.742;9.128;2023-02-01T13:07:36;9.43;;;2.30;;
2480;SDS011;57396;48.742;9.128;2023-02-01T13:12:54;11.43;;;2.90;;
2480;SDS011;57396;48.742;9.128;2023-02-01T13:15:28;8.10;;;2.83;;
2480;SDS011;57396;48.742;9.128;2023-02-01T13:17:57;9.03;;;3.17;;
2480;SDS011;57396;48.742;9.128;2023-02-01T13:20:28;7.97;;;2.47;;
2480;SDS011;57396;48.742;9.128;2023-02-01T13:23:21;7.60;;;2.47;;
2480;SDS011;57396;48.742;9.128;2023-02-01T13:25:51;10.97;;;2.70;;
2480;SDS011;57396;48.742;9.128;2023-02-01T13:28:19;12.80;;;3.30;;
2480;SDS011;57396;48.742;9.128;2023-02-01T13:30:57;11.23;;;3.23;;
2480;SDS011;57396;48.742;9.128;2023-02-01T13:39:18;11.17;;;2.80;;
2480;SDS011;57396;48.742;9.128;2023-02-01T13:41:58;8.40;;;2.50;;
2480;SDS011;57396;48.742;9.128;2023-02-01T13:44:28;13.80;;;2.90;;
2480;SDS011;57396;48.742;9.128;2023-02-01T13:46:58;9.30;;;2.57;;
2480;SDS011;57396;48.742;9.128;2023-02-01T13:49:26;13.70;;;2.67;;
2480;SDS011;57396;48.742;9.128;2023-02-01T13:51:55;12.63;;;2.90;;
2480;SDS011;57396;48.742;9.128;2023-02-01T13:54:34;10.97;;;2.67;;
2480;SDS011;57396;48.742;9.128;2023-02-01T13:57:02;8.10;;;2.57;;
2480;SDS011;57396;48.742;9.128;2023-02-01T14:05:04;6.43;;;2.50;;
2480;SDS011;57396;48.742;9.128;2023-02-01T14:13:26;12.10;;;3.03;;
2480;SDS011;57396;48.742;9.128;2023-02-01T14:23:43;9.13;;;2.80;;
2480;SDS011;57396;48.742;9.128;2023-02-01T14:26:11;5.70;;;2.80;;
2480;SDS011;57396;48.742;9.128;2023-02-01T14:32:06;6.07;;;2.30;;
2480;SDS011;57396;48.742;9.128;2023-02-01T14:34:20;14.77;;;3.47;;
2480;SDS011;57396;48.742;9.128;2023-02-01T14:36:55;10.67;;;3.20;;
2480;SDS011;57396;48.742;9.128;2023-02-01T14:39:33;16.20;;;2.77;;
2480;SDS011;57396;48.742;9.128;2023-02-01T14:42:03;8.30;;;2.73;;
2480;SDS011;57396;48.742;9.128;2023-02-01T14:44:31;8.63;;;4.13;;
2480;SDS011;57396;48.742;9.128;2023-02-01T14:47:26;8.20;;;2.43;;
2480;SDS011;57396;48.742;9.128;2023-02-01T14:52:43;10.37;;;2.70;;
2480;SDS011;57396;48.742;9.128;2023-02-01T14:55:40;9.47;;;3.10;;
2480;SDS011;57396;48.742;9.128;2023-02-01T15:01:04;10.10;;;3.33;;
2480;SDS011;57396;48.742;9.128;2023-02-01T15:06:41;8.83;;;2.80;;
2480;SDS011;57396;48.742;9.128;2023-02-01T15:12:00;9.67;;;3.07;;
2480;SDS011;57396;48.742;9.128;2023-02-01T15:14:34;9.10;;;2.67;;
2480;SDS011;57396;48.742;9.128;2023-02-01T15:17:03;7.57;;;2.50;;
2480;SDS011;57396;48.742;9.128;2023-02-01T15:19:57;8.02;;;3.10;;
2480;SDS011;57396;48.742;9.128;2023-02-01T15:22:23;17.60;;;2.63;;
2480;SDS011;57396;48.742;9.128;2023-02-01T15:24:53;11.87;;;2.70;;
2480;SDS011;57396;48.742;9.128;2023-02-01T15:27:19;9.60;;;3.00;;
2480;SDS011;57396;48.742;9.128;2023-02-01T15:29:45;11.25;;;3.50;;
2480;SDS011;57396;48.742;9.128;2023-02-01T15:32:44;10.43;;;3.20;;
2480;SDS011;57396;48.742;9.128;2023-02-01T15:35:03;13.17;;;3.40;;
2480;SDS011;57396;48.742;9.128;2023-02-01T15:37:30;10.70;;;3.07;;
2480;SDS011;57396;48.742;9.128;2023-02-01T15:40:29;11.63;;;3.10;;
2480;SDS011;57396;48.742;9.128;2023-02-01T15:42:49;14.57;;;3.00;;
2480;SDS011;57396;48.742;9.128;2023-02-01T15:45:18;12.70;;;2.77;;
2480;SDS011;57396;48.742;9.128;2023-02-01T15:47:48;7.10;;;2.10;;
2480;SDS011;57396;48.742;9.128;2023-02-01T15:50:15;8.10;;;2.97;;
2480;SDS011;57396;48.742;9.128;2023-02-01T15:52:42;6.97;;;2.97;;
2480;SDS011;57396;48.742;9.128;2023-02-01T15:55:08;10.00;;;2.53;;
2480;SDS011;57396;48.742;9.128;2023-02-01T15:57:44;7.53;;;2.47;;
2480;SDS011;57396;48.742;9.128;2023-02-01T16:02:52;11.20;;;2.90;;
2480;SDS011;57396;48.742;9.128;2023-02-01T16:10:47;10.27;;;2.70;;
2480;SDS011;57396;48.742;9.128;2023-02-01T16:13:15;9.00;;;2.43;;
2480;SDS011;57396;48.742;9.128;2023-02-01T16:15:41;8.40;;;2.60;;
2480;SDS011;57396;48.742;9.128;2023-02-01T16:18:07;8.63;;;2.40;;
2480;SDS011;57396;48.742;9.128;2023-02-01T16:20:33;8.77;;;3.50;;
2480;SDS011;57396;48.742;9.128;2023-02-01T16:23:03;8.67;;;2.93;;
2480;SDS011;57396;48.742;9.128;2023-02-01T16:25:29;6.47;;;2.00;;
2480;SDS011;57396;48.742;9.128;2023-02-01T16:27:54;10.00;;;2.77;;
2480;SDS011;57396;48.742;9.128;2023-02-01T16:30:20;7.73;;;2.87;;
2480;SDS011;57396;48.742;9.128;2023-02-01T16:32:59;8.77;;;2.87;;
2480;SDS011;57396;48.742;9.128;2023-02-01T16:35:29;10.13;;;2.63;;
2480;SDS011;57396;48.742;9.128;2023-02-01T16:38:00;9.87;;;2.73;;
2480;SDS011;57396;48.742;9.128;2023-02-01T16:40:36;9.85;;;3.00;;
2480;SDS011;57396;48.742;9.128;2023-02-01T16:43:02;10.30;;;2.70;;
2480;SDS011;57396;48.742;9.128;2023-02-01T16:45:32;6.67;;;2.60;;
2480;SDS011;57396;48.742;9.128;2023-02-01T16:47:58;9.23;;;2.47;;
2480;SDS011;57396;48.742;9.128;2023-02-01T16:50:24;15.13;;;3.00;;
2480;SDS011;57396;48.742;9.128;2023-02-01T16:52:51;7.43;;;3.20;;
2480;SDS011;57396;48.742;9.128;2023-02-01T16:55:17;9.90;;;3.50;;
2480;SDS011;57396;48.742;9.128;2023-02-01T16:57:44;6.73;;;2.43;;
2480;SDS011;57396;48.742;9.128;2023-02-01T17:00:10;8.70;;;2.90;;
2480;SDS011;57396;48.742;9.128;2023-02-01T17:02:43;13.20;;;2.40;;
2480;SDS011;57396;48.742;9.128;2023-02-01T17:05:10;12.50;;;3.17;;
2480;SDS011;57396;48.742;9.128;2023-02-01T17:07:36;12.40;;;3.23;;
2480;SDS011;57396;48.742;9.128;2023-02-01T17:10:04;9.60;;;3.20;;
2480;SDS011;57396;48.742;9.128;2023-02-01T17:12:31;12.80;;;3.43;;
2480;SDS011;57396;48.742;9.128;2023-02-01T17:14:57;10.40;;;2.60;;
2480;SDS011;57396;48.742;9.128;2023-02-01T17:17:24;13.70;;;3.83;;
2480;SDS011;57396;48.742;9.128;2023-02-01T17:19:51;7.30;;;2.90;;
2480;SDS011;57396;48.742;9.128;2023-02-01T17:22:21;11.37;;;2.87;;